Time;durP1;ratioP1;P1;durP2;ratioP2;P2;SDS_P1;SDS_P2;PMS_P1;PMS_P2;Temp;Humidity;BMP_temperature;BMP_pressure;BME280_temperature;BME280_humidity;BME280_pressure;Samples;Min_cycle;Max_cycle;Signal;HPM_P1;HPM_P2
2022/05/22 00:01:19;;;;;;;4.97;1.50;;;16.70;74.20;;;;;;7367851;19;20414;-80
2022/05/22 00:03:50;;;;;;;1.93;1.40;;;16.90;74.20;;;;;;7371814;19;20412;-80
2022/05/22 00:06:22;;;;;;;2.77;1.70;;;16.90;74.10;;;;;;7370987;19;20428;-81
2022/05/22 00:08:51;;;;;;;1.73;1.40;;;16.80;74.60;;;;;;7366420;19;20463;-80
2022/05/22 00:11:22;;;;;;;4.50;1.60;;;16.70;75.10;;;;;;7372576;19;20404;-80
2022/05/22 00:13:52;;;;;;;2.07;1.73;;;16.70;75.10;;;;;;7385673;19;20520;-81
2022/05/22 00:16:40;;;;;;;3.17;1.80;;;16.80;75.30;;;;;;7382385;19;20383;-82
2022/05/22 00:19:16;;;;;;;3.33;1.83;;;16.40;76.20;;;;;;7380733;19;20395;-83
2022/05/22 00:21:46;;;;;;;2.20;2.00;;;15.90;79.60;;;;;;7380297;19;20396;-80
2022/05/22 00:24:20;;;;;;;1.90;1.63;;;16.00;79.80;;;;;;7374380;19;20412;-82
2022/05/22 00:26:50;;;;;;;2.30;1.60;;;16.20;78.90;;;;;;7380163;19;20409;-82
2022/05/22 00:29:22;;;;;;;2.00;1.57;;;16.40;78.30;;;;;;7381710;19;20384;-82
2022/05/22 00:31:56;;;;;;;3.13;1.67;;;16.20;79.20;;;;;;7382066;19;20527;-84
2022/05/22 00:34:26;;;;;;;3.97;2.10;;;16.00;80.20;;;;;;7378618;19;21310;-82
2022/05/22 00:36:56;;;;;;;2.40;1.60;;;16.00;80.90;;;;;;7376690;19;20417;-81
2022/05/22 00:39:28;;;;;;;6.43;2.30;;;16.10;80.60;;;;;;7373258;19;21359;-82
2022/05/22 00:41:59;;;;;;;2.60;2.00;;;16.30;80.10;;;;;;7375345;19;20445;-82
2022/05/22 00:44:29;;;;;;;2.67;1.70;;;16.40;79.60;;;;;;7367648;19;20404;-81
2022/05/22 00:47:03;;;;;;;2.87;2.20;;;16.30;79.60;;;;;;7366613;19;21072;-81
2022/05/22 00:49:38;;;;;;;2.37;1.77;;;16.10;80.60;;;;;;7367827;19;20491;-81
2022/05/22 00:52:12;;;;;;;3.63;2.03;;;15.90;82.10;;;;;;7370073;19;20423;-82
2022/05/22 00:54:47;;;;;;;1.87;1.70;;;15.80;83.40;;;;;;7370494;19;21337;-79
2022/05/22 00:57:23;;;;;;;6.03;2.20;;;16.00;82.70;;;;;;7368393;19;20482;-80
2022/05/22 00:59:57;;;;;;;3.50;1.97;;;16.10;81.40;;;;;;7364894;19;20400;-80
2022/05/22 01:03:26;;;;;;;2.17;1.93;;;16.20;81.30;;;;;;7368081;19;20411;-80
2022/05/22 01:05:23;;;;;;;6.13;2.20;;;16.10;81.10;;;;;;7368208;19;20392;-81
2022/05/22 01:07:54;;;;;;;3.90;2.00;;;15.90;81.90;;;;;;7363002;19;20812;-81
2022/05/22 01:10:24;;;;;;;2.23;1.93;;;16.00;82.20;;;;;;7369770;19;20702;-81
2022/05/22 01:12:53;;;;;;;2.80;1.50;;;16.10;82.00;;;;;;7361457;19;20775;-81
2022/05/22 01:15:23;;;;;;;2.60;2.40;;;15.90;81.80;;;;;;7368799;19;20400;-81
2022/05/22 01:17:57;;;;;;;1.73;1.50;;;15.80;82.80;;;;;;7373680;19;20412;-80
2022/05/22 01:20:27;;;;;;;2.90;1.63;;;15.60;83.90;;;;;;7369679;19;20388;-82
2022/05/22 01:23:02;;;;;;;4.13;2.10;;;15.50;84.90;;;;;;7372087;19;20747;-81
2022/05/22 01:25:31;;;;;;;2.37;1.90;;;15.30;86.60;;;;;;7373710;19;20412;-79
2022/05/22 01:28:03;;;;;;;2.47;1.83;;;15.30;86.60;;;;;;7372520;19;20404;-79
2022/05/22 01:30:34;;;;;;;3.60;2.13;;;15.30;86.60;;;;;;7370889;19;20396;-79
2022/05/22 01:33:06;;;;;;;2.67;1.67;;;15.20;87.10;;;;;;7368398;19;22323;-79
2022/05/22 01:35:37;;;;;;;2.93;1.63;;;15.30;87.50;;;;;;7371990;19;20904;-78
2022/05/22 01:38:12;;;;;;;2.23;1.83;;;15.20;87.40;;;;;;7366446;19;21078;-77
2022/05/22 01:40:45;;;;;;;5.50;2.13;;;15.30;87.50;;;;;;7357599;19;20368;-80
2022/05/22 01:43:15;;;;;;;3.53;2.33;;;15.20;87.70;;;;;;7362710;19;20396;-79
2022/05/22 01:45:48;;;;;;;2.57;2.37;;;15.00;89.10;;;;;;7360545;19;20419;-80
2022/05/22 01:48:20;;;;;;;3.90;2.00;;;15.00;89.50;;;;;;7372258;19;20992;-80
2022/05/22 01:50:49;;;;;;;3.90;2.93;;;15.20;89.20;;;;;;7367408;19;20405;-80
2022/05/22 01:53:23;;;;;;;3.20;2.23;;;15.30;89.10;;;;;;7364231;19;20413;-80
2022/05/22 01:55:53;;;;;;;4.23;2.30;;;15.30;89.10;;;;;;7367019;19;20494;-80
2022/05/22 01:58:23;;;;;;;4.40;2.13;;;15.00;90.70;;;;;;7365195;19;20404;-80
2022/05/22 02:00:53;;;;;;;4.20;2.20;;;15.00;90.40;;;;;;7363647;19;20404;-79
2022/05/22 02:03:23;;;;;;;2.60;1.97;;;15.20;90.00;;;;;;7362100;19;20416;-80
2022/05/22 02:05:52;;;;;;;2.87;1.80;;;14.80;90.70;;;;;;7368599;19;20421;-81
2022/05/22 02:08:26;;;;;;;1.70;1.53;;;14.80;91.10;;;;;;7369367;19;20404;-81
2022/05/22 02:11:00;;;;;;;2.73;1.73;;;15.00;90.80;;;;;;7365411;19;22574;-80
2022/05/22 02:13:33;;;;;;;4.23;1.40;;;15.30;90.20;;;;;;7371873;19;20818;-81
2022/05/22 02:16:03;;;;;;;4.23;1.97;;;15.50;88.50;;;;;;7357962;19;21190;-79
2022/05/22 02:18:35;;;;;;;3.70;1.80;;;15.40;88.30;;;;;;7365444;19;20920;-79
2022/05/22 02:21:05;;;;;;;1.83;1.73;;;15.10;90.50;;;;;;7365166;19;20987;-80
2022/05/22 02:23:38;;;;;;;5.87;3.73;;;15.20;90.40;;;;;;7366289;19;20411;-81
2022/05/22 02:26:13;;;;;;;3.80;1.80;;;15.30;90.40;;;;;;7367780;19;20411;-80
2022/05/22 02:28:44;;;;;;;5.10;2.70;;;15.50;90.00;;;;;;7371703;19;20384;-80
2022/05/22 02:31:14;;;;;;;2.37;2.13;;;15.10;91.00;;;;;;7367957;19;20842;-80
2022/05/22 02:33:47;;;;;;;4.40;2.50;;;14.90;92.20;;;;;;7368997;19;20420;-80
2022/05/22 02:36:22;;;;;;;6.13;2.87;;;14.90;91.90;;;;;;7366168;19;21184;-80
2022/05/22 02:38:58;;;;;;;4.30;2.40;;;15.00;91.80;;;;;;7365333;19;20404;-81
2022/05/22 02:41:27;;;;;;;4.30;2.37;;;15.10;91.50;;;;;;7366729;19;20887;-80
2022/05/22 02:43:59;;;;;;;3.13;2.60;;;15.50;91.20;;;;;;7368147;19;21247;-78
2022/05/22 02:46:29;;;;;;;5.50;2.90;;;15.80;89.90;;;;;;7366253;19;20419;-78
2022/05/22 02:48:59;;;;;;;3.63;2.87;;;16.00;88.30;;;;;;7366048;19;20775;-78
2022/05/22 02:51:36;;;;;;;4.00;3.30;;;16.00;88.30;;;;;;7368150;19;20487;-78
2022/05/22 02:54:09;;;;;;;3.67;3.03;;;16.00;87.90;;;;;;7364246;19;21242;-80
2022/05/22 02:56:59;;;;;;;3.37;2.47;;;15.50;90.00;;;;;;7366208;19;20443;-79
2022/05/22 02:59:40;;;;;;;3.10;2.80;;;15.40;91.00;;;;;;7370149;19;20368;-81
2022/05/22 03:02:15;;;;;;;3.50;2.93;;;14.80;92.70;;;;;;7368046;19;20837;-79
2022/05/22 03:04:45;;;;;;;2.80;2.27;;;14.80;93.10;;;;;;7372103;19;20784;-80
2022/05/22 03:07:19;;;;;;;3.20;2.80;;;15.00;92.70;;;;;;7371219;19;20387;-80
2022/05/22 03:09:53;;;;;;;2.77;2.53;;;15.00;92.40;;;;;;7375046;19;20416;-80
2022/05/22 03:12:25;;;;;;;2.67;2.47;;;14.80;92.80;;;;;;7372281;19;20404;-80
2022/05/22 03:15:00;;;;;;;3.10;2.63;;;14.40;94.00;;;;;;7377830;19;20419;-80
2022/05/22 03:17:32;;;;;;;3.90;3.20;;;14.40;94.50;;;;;;7375273;19;20404;-80
2022/05/22 03:20:03;;;;;;;4.00;2.67;;;14.70;94.00;;;;;;7376691;19;20411;-80
2022/05/22 03:22:34;;;;;;;3.73;2.70;;;14.40;94.50;;;;;;7377338;19;20368;-80
2022/05/22 03:25:09;;;;;;;4.00;2.60;;;14.20;95.40;;;;;;7373605;19;20493;-80
2022/05/22 03:27:41;;;;;;;4.83;2.77;;;14.20;95.60;;;;;;7379310;19;20380;-80
2022/05/22 03:30:12;;;;;;;4.60;3.17;;;14.10;96.10;;;;;;7375067;19;20418;-80
2022/05/22 03:32:42;;;;;;;3.53;2.90;;;13.90;96.70;;;;;;7378276;19;20431;-80
2022/05/22 03:35:12;;;;;;;2.97;2.60;;;14.00;96.60;;;;;;7376088;19;20463;-80
2022/05/22 03:37:44;;;;;;;4.90;2.23;;;14.00;97.10;;;;;;7375205;19;20945;-80
2022/05/22 03:40:17;;;;;;;4.37;2.63;;;13.80;97.60;;;;;;7376009;19;21821;-80
2022/05/22 03:42:47;;;;;;;4.93;2.63;;;14.00;97.40;;;;;;7375074;19;20886;-80
2022/05/22 03:45:17;;;;;;;2.83;2.63;;;14.10;97.00;;;;;;7375250;19;20912;-80
2022/05/22 03:47:46;;;;;;;5.40;3.10;;;14.30;96.70;;;;;;7373953;19;20412;-80
2022/05/22 03:50:18;;;;;;;7.10;2.67;;;14.30;96.50;;;;;;7371543;19;20853;-80
2022/05/22 03:52:49;;;;;;;3.67;2.97;;;13.90;97.30;;;;;;7375194;19;20404;-80
2022/05/22 03:55:36;;;;;;;4.30;3.00;;;13.60;98.80;;;;;;7370420;19;20921;-80
2022/05/22 03:58:06;;;;;;;2.70;2.43;;;14.00;98.10;;;;;;7373345;19;20755;-80
2022/05/22 04:00:39;;;;;;;2.47;2.27;;;14.30;97.40;;;;;;7371531;19;20965;-80
2022/05/22 04:03:09;;;;;;;3.87;2.80;;;14.50;96.80;;;;;;7377513;19;20379;-80
2022/05/22 04:05:42;;;;;;;4.20;3.50;;;14.70;96.10;;;;;;7374718;19;21043;-79
2022/05/22 04:08:13;;;;;;;4.20;2.60;;;14.90;95.40;;;;;;7374096;19;20503;-79
2022/05/22 04:10:53;;;;;;;3.07;2.80;;;14.80;95.30;;;;;;7371346;19;21124;-79
2022/05/22 04:13:22;;;;;;;2.90;2.63;;;14.80;95.30;;;;;;7378486;19;20400;-80
2022/05/22 04:15:53;;;;;;;2.97;2.73;;;14.90;95.40;;;;;;7376856;19;20407;-79
2022/05/22 04:18:22;;;;;;;3.43;2.57;;;14.60;95.90;;;;;;7375926;19;20408;-80
2022/05/22 04:20:55;;;;;;;3.53;3.10;;;14.30;97.10;;;;;;7372967;19;20409;-79
2022/05/22 04:26:45;;;;;;;7.63;2.57;;;14.70;96.30;;;;;;7369430;19;20401;-80
2022/05/22 04:29:18;;;;;;;2.80;2.47;;;14.60;96.40;;;;;;7372855;19;20390;-79
2022/05/22 04:31:48;;;;;;;3.10;2.70;;;14.70;96.40;;;;;;7373255;19;20412;-80
2022/05/22 04:34:26;;;;;;;3.23;2.40;;;14.90;95.70;;;;;;7371050;19;20364;-80
2022/05/22 04:37:10;;;;;;;4.40;2.77;;;15.00;95.50;;;;;;7371182;19;20396;-80
2022/05/22 04:40:07;;;;;;;4.17;2.90;;;14.80;95.80;;;;;;7368998;19;20424;-80
2022/05/22 04:42:43;;;;;;;5.03;3.03;;;15.00;95.40;;;;;;7372063;19;20411;-80
2022/05/22 04:45:15;;;;;;;4.87;3.00;;;15.10;95.00;;;;;;7373016;19;20487;-80
2022/05/22 04:47:57;;;;;;;2.70;2.37;;;15.10;95.10;;;;;;7370332;19;20475;-80
2022/05/22 04:50:38;;;;;;;3.20;2.90;;;15.40;94.40;;;;;;7367782;19;20512;-80
2022/05/22 04:53:28;;;;;;;2.83;2.53;;;15.60;93.40;;;;;;7374131;19;20419;-80
2022/05/22 04:56:10;;;;;;;3.33;2.53;;;15.60;92.50;;;;;;7360734;19;20484;-79
2022/05/22 04:58:48;;;;;;;6.30;3.53;;;15.60;91.80;;;;;;7371502;19;20922;-80
2022/05/22 05:01:20;;;;;;;3.07;2.87;;;15.40;92.20;;;;;;7370793;19;20391;-80
2022/05/22 05:04:11;;;;;;;4.33;2.90;;;15.40;92.40;;;;;;7370765;19;20468;-80
2022/05/22 05:07:00;;;;;;;3.17;2.80;;;15.50;92.00;;;;;;7368492;19;20404;-80
2022/05/22 05:09:48;;;;;;;3.00;2.50;;;15.40;92.10;;;;;;7371258;19;20412;-80
2022/05/22 05:12:27;;;;;;;4.27;2.80;;;15.10;93.00;;;;;;7373474;19;20381;-80
2022/05/22 05:15:03;;;;;;;2.83;2.60;;;14.70;94.10;;;;;;7371123;19;20387;-80
2022/05/22 05:17:32;;;;;;;3.23;2.90;;;14.70;94.80;;;;;;7371831;19;20924;-80
2022/05/22 05:20:03;;;;;;;4.03;3.03;;;14.70;94.80;;;;;;7368874;19;20388;-80
2022/05/22 05:22:47;;;;;;;5.60;2.60;;;14.80;95.10;;;;;;7371284;19;20388;-80
2022/05/22 05:25:24;;;;;;;2.97;2.70;;;14.80;95.10;;;;;;7369911;19;20856;-80
2022/05/22 05:27:54;;;;;;;3.33;3.03;;;14.90;94.80;;;;;;7366874;19;20416;-80
2022/05/22 05:30:27;;;;;;;6.10;2.93;;;14.90;94.50;;;;;;7370043;19;20412;-80
2022/05/22 05:32:58;;;;;;;3.23;2.90;;;15.00;94.80;;;;;;7365846;19;20967;-79
2022/05/22 05:35:47;;;;;;;3.00;2.60;;;15.00;95.20;;;;;;7369808;19;20376;-80
2022/05/22 05:38:30;;;;;;;4.97;2.73;;;15.20;95.20;;;;;;7370265;19;20408;-80
2022/05/22 05:41:03;;;;;;;2.73;2.53;;;15.30;94.50;;;;;;7364692;19;20391;-80
2022/05/22 05:43:32;;;;;;;4.40;2.37;;;15.50;94.40;;;;;;7366307;19;20412;-83
2022/05/22 05:46:07;;;;;;;3.67;2.70;;;15.80;93.60;;;;;;7371720;19;20372;-81
2022/05/22 05:48:36;;;;;;;3.57;2.50;;;16.20;92.40;;;;;;7371531;19;20420;-80
2022/05/22 05:51:07;;;;;;;4.10;2.90;;;16.70;91.60;;;;;;7377361;19;20429;-87
2022/05/22 05:53:42;;;;;;;5.17;2.93;;;16.90;90.50;;;;;;7383067;19;20407;-86
2022/05/22 05:56:32;;;;;;;4.50;3.63;;;17.20;89.60;;;;;;7369709;19;21363;-85
2022/05/22 05:59:12;;;;;;;3.40;2.63;;;17.40;87.80;;;;;;7376386;19;20388;-84
2022/05/22 06:02:03;;;;;;;4.20;2.10;;;17.60;86.60;;;;;;7375501;19;20389;-83
2022/05/22 06:04:32;;;;;;;4.23;2.60;;;17.80;85.60;;;;;;7372213;19;20441;-86
2022/05/22 06:07:05;;;;;;;2.83;2.33;;;17.90;84.70;;;;;;7368518;19;20432;-84
2022/05/22 06:09:37;;;;;;;3.53;2.33;;;18.10;84.60;;;;;;7371964;19;20423;-85
2022/05/22 06:12:26;;;;;;;2.73;2.53;;;18.30;82.10;;;;;;7369769;19;21190;-85
2022/05/22 06:15:04;;;;;;;2.80;1.90;;;18.50;80.10;;;;;;7369115;19;20971;-85
2022/05/22 06:17:43;;;;;;;4.43;2.50;;;18.70;78.60;;;;;;7365436;19;20408;-86
2022/05/22 06:20:17;;;;;;;4.63;2.00;;;18.90;76.50;;;;;;7352923;19;20487;-84
2022/05/22 06:22:52;;;;;;;2.53;2.23;;;19.00;75.50;;;;;;7372463;19;20421;-77
2022/05/22 06:25:44;;;;;;;2.30;2.10;;;19.10;75.60;;;;;;7360059;19;20393;-80
2022/05/22 06:28:27;;;;;;;2.83;1.90;;;19.40;73.40;;;;;;7361943;19;21049;-78
2022/05/22 06:31:13;;;;;;;2.63;1.80;;;19.40;70.50;;;;;;7362217;19;20400;-80
2022/05/22 06:33:57;;;;;;;4.00;2.00;;;19.20;70.40;;;;;;7364516;19;21134;-78
2022/05/22 06:36:34;;;;;;;4.70;2.23;;;19.20;70.00;;;;;;7371252;19;20419;-80
2022/05/22 06:42:26;;;;;;;3.03;1.50;;;19.60;70.60;;;;;;7355188;19;20416;-77
2022/05/22 06:45:25;;;;;;;6.50;2.40;;;20.00;69.90;;;;;;7358884;19;20419;-79
2022/05/22 06:48:07;;;;;;;2.97;1.70;;;20.20;65.80;;;;;;7373561;19;20410;-81
2022/05/22 06:50:57;;;;;;;6.10;2.07;;;20.20;65.80;;;;;;7382049;19;20412;-81
2022/05/22 06:54:02;;;;;;;1.50;1.40;;;20.40;65.60;;;;;;7374323;19;20506;-80
2022/05/22 06:56:32;;;;;;;4.00;2.00;;;20.70;62.90;;;;;;7368831;19;20786;-81
2022/05/22 06:59:20;;;;;;;7.50;2.40;;;20.80;62.50;;;;;;7382136;19;20422;-80
2022/05/22 07:02:01;;;;;;;3.67;1.80;;;21.00;63.40;;;;;;7376816;19;20404;-81
2022/05/22 07:05:00;;;;;;;3.53;2.20;;;21.00;60.10;;;;;;7379052;19;20432;-82
2022/05/22 07:07:48;;;;;;;3.27;1.90;;;21.00;61.70;;;;;;7373088;19;20441;-82
2022/05/22 07:13:38;;;;;;;2.60;1.87;;;21.40;61.00;;;;;;7376662;19;20434;-82
2022/05/22 07:16:25;;;;;;;3.90;2.17;;;20.40;57.90;;;;;;7375520;19;20944;-89
2022/05/22 07:19:12;;;;;;;4.07;2.00;;;21.60;58.70;;;;;;7381699;19;20411;-84
2022/05/22 07:21:53;;;;;;;3.00;1.93;;;21.30;58.50;;;;;;7375802;19;20404;-79
2022/05/22 07:24:50;;;;;;;2.30;1.83;;;20.70;60.10;;;;;;7370517;19;20416;-90
2022/05/22 07:27:28;;;;;;;3.10;1.93;;;20.70;59.80;;;;;;7378628;19;20424;-74
2022/05/22 07:30:22;;;;;;;2.63;1.63;;;20.80;59.30;;;;;;7372048;19;20427;-75
2022/05/22 07:33:14;;;;;;;4.10;1.80;;;20.80;60.80;;;;;;7373647;19;20831;-83
2022/05/22 07:36:16;;;;;;;4.90;1.90;;;21.00;59.90;;;;;;7356027;19;20435;-82
2022/05/22 07:38:46;;;;;;;2.40;1.90;;;21.40;59.00;;;;;;7375656;19;20943;-80
2022/05/22 07:41:31;;;;;;;1.93;1.73;;;21.70;58.00;;;;;;7365598;19;20400;-79
2022/05/22 07:44:09;;;;;;;5.23;1.70;;;21.80;57.60;;;;;;7375697;19;20404;-83
2022/05/22 07:46:59;;;;;;;6.03;1.80;;;22.10;57.10;;;;;;7361238;19;20499;-82
2022/05/22 07:52:48;;;;;;;2.27;1.70;;;22.70;55.60;;;;;;7373371;19;20412;-84
2022/05/22 07:55:26;;;;;;;2.53;1.80;;;23.00;54.90;;;;;;7372502;19;20404;-83
2022/05/22 07:58:20;;;;;;;3.60;1.77;;;23.20;55.10;;;;;;7356911;19;20392;-83
2022/05/22 08:01:02;;;;;;;2.57;1.90;;;23.40;54.70;;;;;;7364037;19;20412;-82
2022/05/22 08:03:53;;;;;;;4.40;1.83;;;23.60;54.70;;;;;;7362985;19;20524;-79
2022/05/22 08:07:01;;;;;;;2.70;1.43;;;23.70;54.70;;;;;;7361772;19;20416;-82
2022/05/22 08:09:51;;;;;;;2.30;1.50;;;24.00;53.60;;;;;;7376982;19;20507;-77
2022/05/22 08:12:21;;;;;;;3.60;1.60;;;24.20;52.40;;;;;;7362300;19;20934;-80
2022/05/22 08:14:54;;;;;;;1.70;1.50;;;24.40;52.60;;;;;;7373608;19;20423;-90
2022/05/22 08:17:24;;;;;;;2.00;1.70;;;24.60;51.80;;;;;;7373843;19;20408;-85
2022/05/22 08:19:54;;;;;;;1.80;1.70;;;24.80;51.00;;;;;;7373338;19;20574;-83
2022/05/22 08:22:37;;;;;;;1.60;1.50;;;25.00;50.50;;;;;;7360395;19;20428;-83
2022/05/22 08:25:41;;;;;;;2.30;1.60;;;25.20;49.70;;;;;;7358561;19;20407;-82
2022/05/22 08:28:13;;;;;;;1.90;1.63;;;25.20;49.30;;;;;;7369342;19;20450;-84
2022/05/22 08:30:46;;;;;;;3.20;1.57;;;25.30;48.50;;;;;;7354781;19;20947;-80
2022/05/22 08:33:17;;;;;;;2.13;1.43;;;25.40;48.70;;;;;;7370281;19;20408;-80
2022/05/22 08:35:47;;;;;;;4.20;1.60;;;25.50;48.50;;;;;;7361227;19;20421;-86
2022/05/22 08:38:17;;;;;;;7.60;1.50;;;25.70;47.70;;;;;;7372023;19;20416;-92
2022/05/22 08:40:56;;;;;;;2.87;1.40;;;25.60;46.70;;;;;;7377586;19;21114;-90
2022/05/22 08:43:34;;;;;;;2.13;1.40;;;25.80;46.50;;;;;;7369639;19;20396;-88
2022/05/22 08:46:10;;;;;;;3.20;1.90;;;26.00;46.40;;;;;;7329262;19;20416;-91
2022/05/22 08:48:46;;;;;;;3.00;1.67;;;26.30;45.80;;;;;;7370584;19;20435;-89
2022/05/22 08:51:20;;;;;;;2.93;1.70;;;26.50;45.00;;;;;;7382713;19;20427;-82
2022/05/22 08:53:55;;;;;;;2.10;1.60;;;26.50;44.90;;;;;;7362325;19;20398;-85
2022/05/22 08:59:14;;;;;;;2.00;1.50;;;27.00;44.30;;;;;;7357714;19;21489;-79
2022/05/22 09:01:53;;;;;;;5.63;1.70;;;27.40;42.80;;;;;;7361688;19;21206;-80
2022/05/22 09:04:35;;;;;;;1.93;1.50;;;27.50;42.20;;;;;;7359770;19;21229;-80
2022/05/22 09:07:18;;;;;;;3.00;1.30;;;27.40;41.80;;;;;;7359461;19;20439;-80
2022/05/22 09:09:55;;;;;;;4.20;1.50;;;27.60;41.30;;;;;;7377049;19;20356;-78
2022/05/22 09:12:39;;;;;;;3.13;1.37;;;27.90;40.90;;;;;;7367584;19;20931;-79
2022/05/22 09:15:17;;;;;;;2.97;1.10;;;28.20;40.40;;;;;;7383934;19;20397;-79
2022/05/22 09:17:58;;;;;;;1.93;1.40;;;28.60;39.60;;;;;;7395097;19;20866;-81
2022/05/22 09:20:44;;;;;;;2.37;1.17;;;28.90;38.70;;;;;;7389245;19;20392;-83
2022/05/22 09:23:36;;;;;;;4.63;1.27;;;28.80;38.10;;;;;;7401535;19;20408;-82
2022/05/22 09:26:10;;;;;;;2.37;1.20;;;29.30;38.00;;;;;;7407574;19;20548;-80
2022/05/22 09:28:49;;;;;;;1.80;1.00;;;29.50;37.10;;;;;;7415553;19;20383;-83
2022/05/22 09:31:29;;;;;;;1.80;1.23;;;29.90;36.60;;;;;;7411716;19;20400;-81
2022/05/22 09:34:21;;;;;;;3.10;1.20;;;30.10;36.50;;;;;;7410517;19;20396;-83
2022/05/22 09:37:00;;;;;;;1.63;1.50;;;30.40;34.50;;;;;;7388703;19;20495;-82
2022/05/22 09:39:57;;;;;;;2.90;1.30;;;30.40;34.70;;;;;;7383794;19;20427;-82
2022/05/22 09:42:43;;;;;;;1.70;1.30;;;30.50;34.00;;;;;;7378290;19;20528;-81
2022/05/22 09:45:29;;;;;;;2.97;1.30;;;;;;;;;;7379244;19;20501;-82
2022/05/22 09:48:12;;;;;;;1.23;1.10;;;31.50;32.50;;;;;;7378277;19;20421;-80
2022/05/22 09:50:52;;;;;;;1.40;1.30;;;31.50;33.20;;;;;;7374717;19;20404;-74
2022/05/22 09:53:34;;;;;;;1.97;1.40;;;31.40;33.00;;;;;;7369133;19;20415;-80
2022/05/22 09:56:27;;;;;;;2.67;1.10;;;30.90;33.20;;;;;;7372117;19;20470;-78
2022/05/22 09:59:21;;;;;;;2.23;1.00;;;31.00;33.40;;;;;;7373409;19;21084;-79
2022/05/22 10:01:57;;;;;;;1.70;1.23;;;31.90;32.20;;;;;;7366689;19;20971;-81
2022/05/22 10:04:37;;;;;;;1.70;1.43;;;32.00;32.00;;;;;;7369550;19;20412;-85
2022/05/22 10:07:20;;;;;;;3.10;1.40;;;32.20;31.60;;;;;;7358794;19;20824;-81
2022/05/22 10:09:59;;;;;;;4.23;1.57;;;32.80;30.60;;;;;;7367620;19;20435;-83
2022/05/22 10:12:41;;;;;;;6.87;1.90;;;34.10;29.80;;;;;;7364597;19;20404;-80
2022/05/22 10:15:28;;;;;;;3.90;1.90;;;34.80;28.80;;;;;;7367818;19;20408;-79
2022/05/22 10:18:12;;;;;;;2.30;1.33;;;36.00;27.90;;;;;;7362240;19;20392;-79
2022/05/22 10:20:52;;;;;;;2.57;1.53;;;36.70;26.80;;;;;;7357778;19;20436;-80
2022/05/22 10:23:42;;;;;;;6.67;2.60;;;36.50;26.60;;;;;;7363829;19;20408;-78
2022/05/22 10:26:21;;;;;;;15.23;8.13;;;37.20;25.90;;;;;;7364258;19;20412;-79
2022/05/22 10:28:57;;;;;;;8.07;4.17;;;37.70;25.10;;;;;;7367429;19;20411;-82
2022/05/22 10:31:36;;;;;;;4.63;2.80;;;36.60;26.60;;;;;;7369548;19;20406;-84
2022/05/22 10:34:15;;;;;;;67.17;36.77;;;36.60;25.70;;;;;;7366895;19;20420;-81
2022/05/22 10:36:52;;;;;;;2.30;1.67;;;37.50;26.10;;;;;;7368307;19;20777;-81
2022/05/22 10:39:24;;;;;;;1.70;1.33;;;38.20;24.10;;;;;;7366943;19;20976;-80
2022/05/22 10:44:43;;;;;;;3.43;2.37;;;38.60;23.90;;;;;;7365143;19;20513;-76
2022/05/22 10:47:15;;;;;;;3.50;2.00;;;38.40;22.60;;;;;;7338794;19;20419;-74
2022/05/22 10:49:47;;;;;;;1.70;1.20;;;38.90;23.30;;;;;;7361980;19;20959;-77
2022/05/22 10:52:26;;;;;;;2.13;1.30;;;38.30;23.80;;;;;;7342980;19;20427;-80
2022/05/22 10:55:01;;;;;;;4.10;2.70;;;38.50;23.60;;;;;;7360341;19;20400;-80
2022/05/22 10:57:35;;;;;;;4.73;2.20;;;38.30;23.80;;;;;;7350550;19;20442;-79
2022/05/22 11:00:13;;;;;;;2.70;1.73;;;37.70;26.50;;;;;;7346777;19;20408;-78
2022/05/22 11:02:43;;;;;;;4.27;1.80;;;35.80;26.30;;;;;;7322545;19;21105;-80
2022/05/22 11:05:19;;;;;;;8.97;4.47;;;36.10;26.20;;;;;;7369309;19;20419;-80
2022/05/22 11:07:51;;;;;;;2.67;1.47;;;37.40;25.80;;;;;;7342290;19;20411;-82
2022/05/22 11:10:30;;;;;;;4.20;1.93;;;37.80;24.60;;;;;;7359695;19;21727;-81
2022/05/22 11:13:05;;;;;;;1.53;1.27;;;38.40;24.80;;;;;;7346243;19;20408;-78
2022/05/22 11:15:39;;;;;;;5.73;1.80;;;38.30;23.90;;;;;;7359515;19;20403;-77
2022/05/22 11:18:14;;;;;;;2.17;1.53;;;38.60;24.40;;;;;;7330544;19;20396;-83
2022/05/22 11:20:51;;;;;;;2.57;1.60;;;39.40;23.40;;;;;;7347083;19;20404;-80
2022/05/22 11:23:42;;;;;;;3.13;1.57;;;37.90;24.00;;;;;;7361464;19;20465;-80
2022/05/22 11:26:29;;;;;;;2.90;1.30;;;36.60;24.70;;;;;;7375177;19;20383;-80
2022/05/22 11:29:14;;;;;;;1.40;1.30;;;36.80;25.60;;;;;;7361489;19;21212;-79
2022/05/22 11:31:58;;;;;;;1.97;1.50;;;37.20;25.20;;;;;;7369824;19;20375;-76
2022/05/22 11:35:20;;;;;;;3.20;1.60;;;37.30;24.80;;;;;;7367066;19;21090;-76
2022/05/22 11:38:09;;;;;;;1.40;1.13;;;37.70;24.60;;;;;;7362383;19;20440;-77
2022/05/22 11:40:49;;;;;;;2.23;1.77;;;37.10;24.40;;;;;;7350884;19;20416;-76
2022/05/22 11:43:41;;;;;;;4.13;1.87;;;37.60;25.20;;;;;;7358945;19;20388;-74
2022/05/22 11:46:15;;;;;;;2.53;1.53;;;37.40;24.40;;;;;;7352225;19;21769;-75
2022/05/22 11:48:59;;;;;;;3.67;1.50;;;37.20;24.60;;;;;;7353694;19;20414;-77
2022/05/22 11:51:50;;;;;;;1.83;1.30;;;38.00;24.40;;;;;;7365392;19;20424;-75
2022/05/22 11:54:38;;;;;;;2.67;1.63;;;37.20;25.10;;;;;;7372331;19;20760;-75
2022/05/22 11:57:30;;;;;;;1.97;1.70;;;37.80;24.10;;;;;;7349052;19;20462;-76
2022/05/22 12:00:15;;;;;;;5.57;2.17;;;38.20;24.10;;;;;;7363669;19;20415;-78
2022/05/22 12:02:55;;;;;;;4.00;2.17;;;39.50;23.40;;;;;;7348080;19;25565;-79
2022/05/22 12:05:38;;;;;;;4.10;1.60;;;40.00;23.10;;;;;;7365547;19;20415;-78
2022/05/22 12:08:23;;;;;;;4.80;2.00;;;40.70;22.50;;;;;;7365338;19;20483;-77
2022/05/22 12:11:00;;;;;;;2.57;2.00;;;39.70;23.20;;;;;;7370729;19;20440;-81
2022/05/22 12:13:37;;;;;;;3.70;1.83;;;40.00;23.00;;;;;;7359938;19;20403;-78
2022/05/22 12:16:13;;;;;;;3.10;2.17;;;40.30;22.80;;;;;;7367246;19;20491;-78
2022/05/22 12:19:01;;;;;;;4.10;3.43;;;40.80;22.60;;;;;;7348419;19;20408;-80
2022/05/22 12:21:44;;;;;;;2.13;2.03;;;40.30;27.70;;;;;;7349871;19;20396;-82
2022/05/22 12:24:24;;;;;;;3.13;2.37;;;39.80;21.40;;;;;;7375476;19;20412;-77
2022/05/22 12:26:55;;;;;;;3.57;2.70;;;40.70;21.40;;;;;;7374393;19;20808;-79
2022/05/22 12:29:27;;;;;;;5.03;4.53;;;40.90;21.10;;;;;;7362890;19;20425;-78
2022/05/22 12:32:02;;;;;;;2.13;1.10;;;41.00;20.80;;;;;;7365856;19;20400;-79
2022/05/22 12:34:37;;;;;;;2.50;1.43;;;40.40;20.80;;;;;;7356606;19;20421;-80
2022/05/22 12:37:12;;;;;;;6.70;6.07;;;39.60;21.70;;;;;;7372843;19;20412;-85
2022/05/22 12:39:50;;;;;;;4.57;3.90;;;39.50;23.00;;;;;;7348241;19;20411;-81
2022/05/22 12:42:26;;;;;;;9.97;9.10;;;39.90;21.90;;;;;;7357030;19;20948;-84
2022/05/22 12:44:55;;;;;;;2.50;2.30;;;40.10;23.50;;;;;;7360180;19;21697;-81
2022/05/22 12:47:37;;;;;;;2.90;1.60;;;40.10;21.80;;;;;;7356416;19;20409;-78
2022/05/22 12:50:08;;;;;;;4.93;4.53;;;40.00;21.10;;;;;;7343806;19;20510;-81
2022/05/22 12:52:37;;;;;;;1.87;1.23;;;39.30;23.20;;;;;;7339388;19;20396;-84
2022/05/22 12:55:21;;;;;;;1.40;1.30;;;38.90;22.70;;;;;;7339964;19;20925;-82
2022/05/22 12:57:56;;;;;;;5.40;4.20;;;38.60;22.90;;;;;;7351686;19;20412;-82
2022/05/22 13:00:43;;;;;;;6.13;2.80;;;38.40;24.20;;;;;;7348282;19;21177;-85
2022/05/22 13:03:21;;;;;;;2.80;1.33;;;38.60;24.10;;;;;;7346067;19;20459;-80
2022/05/22 13:05:59;;;;;;;2.17;1.20;;;38.70;22.80;;;;;;7348257;19;20479;-78
2022/05/22 13:08:32;;;;;;;2.27;2.07;;;39.00;22.60;;;;;;7342952;19;21672;-83
2022/05/22 13:11:02;;;;;;;6.87;4.80;;;39.70;22.80;;;;;;7346691;19;20403;-83
2022/05/22 13:13:34;;;;;;;2.53;1.20;;;39.80;22.20;;;;;;7353415;19;20395;-78
2022/05/22 13:16:09;;;;;;;3.07;1.40;;;39.70;21.80;;;;;;7339472;19;20996;-78
2022/05/22 13:18:52;;;;;;;2.20;1.40;;;38.90;22.20;;;;;;7332450;19;20975;-76
2022/05/22 13:21:37;;;;;;;1.87;1.27;;;37.40;23.30;;;;;;7328478;19;20761;-76
2022/05/22 13:24:22;;;;;;;3.20;2.03;;;37.80;23.70;;;;;;7344288;19;20408;-75
2022/05/22 13:26:59;;;;;;;2.43;1.07;;;38.50;23.90;;;;;;7322947;19;20404;-81
2022/05/22 13:29:33;;;;;;;2.20;1.47;;;38.50;22.30;;;;;;7351991;19;21873;-83
2022/05/22 13:32:07;;;;;;;1.90;1.50;;;38.10;22.60;;;;;;7354975;19;20422;-81
2022/05/22 13:34:41;;;;;;;1.67;1.40;;;37.00;24.20;;;;;;7352392;19;22368;-79
2022/05/22 13:37:14;;;;;;;2.83;1.50;;;37.10;23.50;;;;;;7340201;19;20424;-78
2022/05/22 13:39:58;;;;;;;3.90;1.60;;;37.40;23.80;;;;;;7351081;19;20412;-85
2022/05/22 13:43:10;;;;;;;3.00;2.20;;;36.90;24.00;;;;;;7349422;19;20404;-79
2022/05/22 13:46:15;;;;;;;1.67;1.33;;;35.50;24.50;;;;;;7320662;19;20969;-91
2022/05/22 13:49:14;;;;;;;1.97;1.20;;;33.70;26.40;;;;;;7332926;19;20949;-83
2022/05/22 13:54:49;;;;;;;3.33;1.50;;;33.10;27.50;;;;;;7347882;19;20767;-83
2022/05/22 13:57:22;;;;;;;3.60;1.40;;;33.20;27.00;;;;;;7351641;19;20522;-82
2022/05/22 13:59:54;;;;;;;1.80;1.33;;;33.10;27.60;;;;;;7350392;19;21054;-82
2022/05/22 14:02:30;;;;;;;2.50;1.33;;;32.50;27.00;;;;;;7362208;19;24287;-82
2022/05/22 14:05:02;;;;;;;2.43;1.27;;;32.50;27.60;;;;;;7358443;19;20443;-82